Terminal Aerodrome Forecast
Issued by NWS

Home | Current Version | Previous Version | Text Only | Print | Product List | Glossary On
Versions: 1 2 3 4 5 6 7 8 9 10 11 12 13 14 15 16
000
FTUS43 KDTX 301948 AAA
TAFDET
TAF AMD
KDET 301948Z 3020/0118 23005KT P6SM BKN035
      TEMPO 3020/3023 TSRA OVC020CB
     FM010300 30004KT P6SM BKN025
     FM010700 30006KT 5SM BR OVC007=

USA.gov is the U.S. government's official web portal to all federal, state and local government web resources and services.